Time;durP1;ratioP1;P1;durP2;ratioP2;P2;SDS_P1;SDS_P2;PMS_P1;PMS_P2;Temp;Humidity;BMP_temperature;BMP_pressure;BME280_temperature;BME280_humidity;BME280_pressure;Samples;Min_cycle;Max_cycle;Signal;HPM_P1;HPM_P2
2023/05/22 00:01:42;;;;;;;16.30;10.50;;;;;;;-141.97;83.64;47866.97;4975210;28;20188;-85
2023/05/22 00:04:08;;;;;;;15.70;9.73;;;;;;;-141.97;83.59;47799.72;4976285;28;20628;-85
2023/05/22 00:06:33;;;;;;;14.47;10.10;;;;;;;-141.97;83.80;47692.06;4976879;28;20251;-85
2023/05/22 00:08:58;;;;;;;19.67;10.20;;;;;;;-141.97;83.79;47672.84;4976627;28;20196;-85
2023/05/22 00:11:24;;;;;;;16.23;10.90;;;;;;;-141.97;83.74;47676.69;4976700;28;20183;-85
2023/05/22 00:13:50;;;;;;;16.00;10.00;;;;;;;-141.97;83.58;47653.63;4977302;28;20211;-84
2023/05/22 00:16:16;;;;;;;16.43;10.30;;;;;;;-141.97;83.31;47724.75;4977848;28;20227;-84
2023/05/22 00:18:41;;;;;;;14.73;10.13;;;;;;;-141.97;82.67;47680.53;4978186;28;20247;-85
2023/05/22 00:21:08;;;;;;;15.87;9.87;;;;;;;-141.97;82.25;47667.06;4975903;28;20164;-85
2023/05/22 00:23:34;;;;;;;15.17;9.37;;;;;;;-141.97;82.76;47692.06;4976544;28;20203;-84
2023/05/22 00:26:00;;;;;;;15.83;9.63;;;;;;;-141.97;82.93;47684.38;4976683;28;20175;-86
2023/05/22 00:28:25;;;;;;;15.63;9.50;;;;;;;-141.97;83.70;47707.44;4977128;28;20164;-85
2023/05/22 00:30:51;;;;;;;13.80;8.80;;;;;;;-141.97;83.71;47670.91;4976247;28;20176;-85
2023/05/22 00:33:16;;;;;;;14.77;9.30;;;;;;;-141.97;84.12;47761.25;4976407;28;20176;-85
2023/05/22 00:35:42;;;;;;;15.50;9.10;;;;;;;-141.97;84.33;47843.91;4976734;28;20183;-85
2023/05/22 00:38:07;;;;;;;14.63;9.37;;;;;;;-141.97;84.39;47592.13;4976607;28;20167;-84
2023/05/22 00:40:33;;;;;;;13.53;9.17;;;;;;;-141.97;84.58;47715.13;4976632;28;20171;-85
2023/05/22 00:42:58;;;;;;;19.50;9.43;;;;;;;-141.97;84.88;47680.53;4978892;28;20227;-85
2023/05/22 00:45:24;;;;;;;15.40;9.50;;;;;;;-141.97;84.75;47703.59;4994462;28;20192;-86
2023/05/22 00:47:50;;;;;;;15.67;9.47;;;;;;;-141.97;84.47;47672.84;4978950;28;20164;-85
2023/05/22 00:50:17;;;;;;;14.47;9.50;;;;;;;-141.97;84.26;47707.44;4976645;28;20176;-85
2023/05/22 00:52:45;;;;;;;11.97;9.00;;;;;;;-141.97;84.37;47638.25;4976163;28;20621;-85
2023/05/22 00:55:12;;;;;;;12.83;8.73;;;;;;;-141.97;83.69;47695.91;4976451;28;20182;-85
2023/05/22 00:57:41;;;;;;;14.33;9.10;;;;;;;-141.97;83.14;47699.75;4976271;28;20179;-85
2023/05/22 01:00:10;;;;;;;13.03;9.10;;;;;;;-141.97;82.96;47670.91;4975891;28;20179;-85
2023/05/22 01:02:36;;;;;;;12.93;9.17;;;;;;;-141.97;81.98;47872.75;4975680;28;20196;-85
2023/05/22 01:05:04;;;;;;;12.97;9.10;;;;;;;-141.97;82.10;47657.47;4975736;28;20629;-84
2023/05/22 01:07:30;;;;;;;13.67;8.33;;;;;;;-141.97;81.73;47682.47;4975322;28;20188;-85
2023/05/22 01:09:56;;;;;;;12.33;8.00;;;;;;;-141.97;81.05;47722.81;4975357;28;20226;-85
2023/05/22 01:13:03;;;;;;;13.37;8.13;;;;;;;-141.97;80.91;47707.44;4975676;28;20236;-84
2023/05/22 01:15:46;;;;;;;19.20;11.60;;;;;;;-141.97;81.75;47694.00;4935093;29;20666;-85
2023/05/22 01:18:23;;;;;;;20.30;11.27;;;;;;;-141.97;81.23;47661.31;4934192;28;20193;-85
2023/05/22 01:20:50;;;;;;;14.97;8.90;;;;;;;-141.97;81.58;47680.53;4934722;29;20165;-85
2023/05/22 01:23:45;;;;;;;15.03;8.80;;;;;;;-141.97;81.60;47630.56;4917890;29;20201;-84
2023/05/22 01:26:46;;;;;;;15.53;9.50;;;;;;;-141.97;81.90;47680.53;4934620;29;20181;-85
2023/05/22 01:29:40;;;;;;;46.27;28.23;;;;;;;-141.97;81.80;47718.97;4859285;29;20234;-84
2023/05/22 01:32:09;;;;;;;23.63;15.27;;;;;;;-141.97;81.95;47645.94;4858952;29;20202;-85
2023/05/22 01:34:37;;;;;;;21.23;11.97;;;;;;;-141.97;80.85;47832.38;4859087;29;20305;-85
2023/05/22 01:37:03;;;;;;;14.43;8.20;;;;;;;-141.97;80.91;47695.91;4843698;29;20583;-84
2023/05/22 01:39:30;;;;;;;10.83;8.10;;;;;;;-141.97;80.64;47661.31;4859477;29;20319;-84
2023/05/22 01:41:56;;;;;;;13.23;8.17;;;;;;;-141.97;81.29;47686.31;4859244;29;20242;-84
2023/05/22 01:44:22;;;;;;;14.70;8.80;;;;;;;-141.97;81.78;47692.06;4859194;29;20264;-85
2023/05/22 01:46:47;;;;;;;14.70;8.17;;;;;;;-141.97;81.78;47711.28;4859238;29;20184;-85
2023/05/22 01:49:14;;;;;;;14.60;8.30;;;;;;;-141.97;81.25;47688.22;4858761;29;20251;-85
2023/05/22 01:51:49;;;;;;;13.27;8.70;;;;;;;-141.97;81.25;47753.56;4889257;29;20357;-84
2023/05/22 01:54:21;;;;;;;12.97;8.20;;;;;;;-141.97;81.77;47703.59;4896334;29;20617;-84
2023/05/22 01:57:25;;;;;;;13.83;8.90;;;;;;;-141.97;82.09;47663.22;4895981;29;20258;-85
2023/05/22 01:59:57;;;;;;;12.50;8.47;;;;;;;-141.97;82.58;47707.44;4822076;29;20230;-84
2023/05/22 02:02:24;;;;;;;16.53;8.47;;;;;;;-141.97;82.29;47718.97;4806520;29;20710;-84
2023/05/22 02:04:58;;;;;;;12.90;8.97;;;;;;;-141.97;82.44;47707.44;4823619;29;20237;-85
2023/05/22 02:07:25;;;;;;;15.43;8.73;;;;;;;-141.97;82.49;47592.13;4877461;29;20242;-85
2023/05/22 02:09:52;;;;;;;11.90;8.00;;;;;;;-141.97;82.21;47718.97;4877306;29;20219;-85
2023/05/22 02:12:19;;;;;;;12.63;9.10;;;;;;;-141.97;82.60;47642.09;4862070;29;20172;-85
2023/05/22 02:14:45;;;;;;;12.40;8.60;;;;;;;-141.97;82.83;47767.03;4877539;29;20223;-85
2023/05/22 02:17:11;;;;;;;16.20;9.40;;;;;;;-141.97;81.88;47686.31;4877412;29;20227;-85
2023/05/22 02:19:36;;;;;;;16.07;8.80;;;;;;;-141.97;82.10;47705.53;4877232;29;20250;-84
2023/05/22 02:22:02;;;;;;;13.60;8.90;;;;;;;-141.97;82.27;47747.81;4877487;29;20238;-84
2023/05/22 02:24:29;;;;;;;13.70;9.33;;;;;;;-141.97;82.96;47722.81;4878738;29;20199;-85
2023/05/22 02:26:55;;;;;;;17.47;8.70;;;;;;;-141.97;83.26;47726.66;4881076;29;20167;-84
2023/05/22 02:29:20;;;;;;;14.00;8.97;;;;;;;-141.97;82.61;47670.91;4880312;29;20250;-85
2023/05/22 02:31:45;;;;;;;14.50;9.60;;;;;;;-141.97;82.33;47630.56;4880820;29;21076;-85
2023/05/22 02:34:11;;;;;;;17.30;9.10;;;;;;;-141.97;82.52;47644.00;4880916;29;20187;-85
2023/05/22 02:36:36;;;;;;;13.30;8.83;;;;;;;-141.97;82.55;47772.78;4937304;28;20196;-85
2023/05/22 02:39:02;;;;;;;13.60;9.50;;;;;;;-141.97;82.97;47842.00;4978646;28;20168;-85
2023/05/22 02:41:27;;;;;;;17.03;9.70;;;;;;;-141.97;82.29;47667.06;4977178;28;20184;-84
2023/05/22 02:43:53;;;;;;;13.93;8.53;;;;;;;-141.97;81.63;47730.50;4975994;28;20255;-84
2023/05/22 02:46:18;;;;;;;15.00;9.03;;;;;;;-141.97;82.04;47644.00;4978153;28;20164;-85
2023/05/22 02:48:44;;;;;;;14.80;9.03;;;;;;;-141.97;82.41;47697.84;4997718;28;20163;-85
2023/05/22 02:51:09;;;;;;;15.43;8.80;;;;;;;-141.97;81.88;47707.44;4980117;28;20176;-85
2023/05/22 02:53:38;;;;;;;13.67;8.40;;;;;;;-141.97;82.26;47718.97;4977062;28;20175;-85
2023/05/22 02:56:09;;;;;;;12.53;8.83;;;;;;;-141.97;82.26;47711.28;4976260;28;20278;-85
2023/05/22 02:58:35;;;;;;;15.03;8.97;;;;;;;-141.97;82.89;47718.97;4977680;28;20156;-85
2023/05/22 03:01:02;;;;;;;15.43;8.70;;;;;;;-141.97;82.53;47567.13;4977697;28;20541;-85
2023/05/22 03:03:28;;;;;;;15.73;9.00;;;;;;;-141.97;83.02;47713.22;4976494;28;20226;-85
2023/05/22 03:05:57;;;;;;;14.23;9.33;;;;;;;-141.97;82.80;47755.50;4977663;28;20160;-85
2023/05/22 03:08:23;;;;;;;14.87;9.37;;;;;;;-141.97;82.58;47688.22;4992655;28;20187;-85
2023/05/22 03:10:48;;;;;;;15.60;10.00;;;;;;;-141.97;83.26;47732.44;4977909;28;20555;-84
2023/05/22 03:13:14;;;;;;;18.40;11.83;;;;;;;-141.97;82.93;47697.84;4978126;28;20637;-85
2023/05/22 03:15:39;;;;;;;19.33;12.43;;;;;;;-141.97;82.61;47680.53;4978107;28;20170;-85
2023/05/22 03:18:05;;;;;;;14.77;9.67;;;;;;;-141.97;82.11;47686.31;4977889;28;20281;-85
2023/05/22 03:20:31;;;;;;;18.33;9.20;;;;;;;-141.97;82.20;47692.06;4986820;28;20156;-84
2023/05/22 03:22:56;;;;;;;16.73;9.63;;;;;;;-141.97;82.02;47711.28;4995895;28;20259;-84
2023/05/22 03:25:22;;;;;;;17.50;9.87;;;;;;;-141.97;81.95;47709.38;4996211;28;20199;-84
2023/05/22 03:27:47;;;;;;;15.77;9.97;;;;;;;-141.97;82.09;47669.00;4988373;28;20172;-85
2023/05/22 03:30:13;;;;;;;13.87;10.03;;;;;;;-141.97;82.17;47711.28;4979280;28;20570;-86
2023/05/22 03:32:39;;;;;;;17.50;10.47;;;;;;;-141.97;82.29;47663.22;4978513;28;20641;-85
2023/05/22 03:35:05;;;;;;;16.17;9.53;;;;;;;-141.97;82.44;47699.75;4977937;28;20256;-84
2023/05/22 03:37:31;;;;;;;12.43;9.20;;;;;;;-141.97;82.12;47747.81;4978395;28;20171;-85
2023/05/22 03:39:56;;;;;;;12.93;9.23;;;;;;;-141.97;81.84;47857.38;4977861;28;20156;-85
2023/05/22 03:42:22;;;;;;;14.33;9.30;;;;;;;-141.97;81.31;47663.22;4977319;28;20191;-85
2023/05/22 03:44:48;;;;;;;13.50;9.00;;;;;;;-141.97;83.45;47803.56;4977612;28;20226;-85
2023/05/22 03:47:14;;;;;;;17.27;9.67;;;;;;;-141.97;83.37;47694.00;4977072;28;20157;-85
2023/05/22 03:49:40;;;;;;;15.30;9.33;;;;;;;-141.97;82.81;47842.00;4959499;28;20259;-84
2023/05/22 03:52:08;;;;;;;14.03;9.13;;;;;;;-141.97;82.37;47682.47;4976932;28;20167;-85
2023/05/22 03:54:33;;;;;;;14.50;9.47;;;;;;;-141.97;82.09;47603.66;4977043;28;20168;-85
2023/05/22 03:56:59;;;;;;;15.53;9.50;;;;;;;-141.97;81.47;47649.78;4977271;28;20175;-85
2023/05/22 03:59:25;;;;;;;16.57;9.37;;;;;;;-141.97;81.63;47684.38;4976939;28;20243;-84
2023/05/22 04:01:50;;;;;;;16.43;9.97;;;;;;;-141.97;81.70;47638.25;4976953;28;20188;-85
2023/05/22 04:04:16;;;;;;;17.97;9.47;;;;;;;-141.97;81.75;47686.31;4977397;28;20195;-85
2023/05/22 04:06:44;;;;;;;15.20;10.03;;;;;;;-141.97;81.76;47713.22;4972618;28;20247;-85
2023/05/22 04:09:10;;;;;;;14.90;10.00;;;;;;;-141.97;81.26;47682.47;4977320;28;20164;-84
2023/05/22 04:11:40;;;;;;;13.87;9.80;;;;;;;-141.97;79.61;47868.91;4976705;28;20174;-83
2023/05/22 04:14:07;;;;;;;15.67;9.53;;;;;;;-141.97;79.45;47692.06;4976901;28;20164;-85
2023/05/22 04:16:33;;;;;;;15.87;9.40;;;;;;;-141.97;80.24;47713.22;4976285;28;20161;-84
2023/05/22 04:19:01;;;;;;;19.50;9.83;;;;;;;-141.97;81.60;47695.91;4976683;28;20599;-84
2023/05/22 04:21:27;;;;;;;16.43;9.10;;;;;;;-141.97;82.34;47692.06;4979529;28;20618;-84
2023/05/22 04:23:53;;;;;;;23.63;14.10;;;;;;;-141.97;83.71;47620.94;4978347;28;20199;-85
2023/05/22 04:26:19;;;;;;;28.63;20.40;;;;;;;-141.97;83.91;47665.16;4980913;28;20168;-84
2023/05/22 04:28:45;;;;;;;17.73;12.20;;;;;;;-141.97;84.23;47718.97;4979529;28;20167;-85
2023/05/22 04:31:14;;;;;;;16.43;11.47;;;;;;;-141.97;84.25;47657.47;4977248;28;20175;-85
2023/05/22 04:33:39;;;;;;;19.57;12.63;;;;;;;-141.97;83.52;47688.22;4977276;28;20243;-85
2023/05/22 04:36:07;;;;;;;17.40;12.27;;;;;;;-141.97;83.91;47722.81;4977150;28;20187;-85
2023/05/22 04:38:35;;;;;;;18.20;11.77;;;;;;;-141.97;83.16;47678.63;4979204;28;20208;-84
2023/05/22 04:41:04;;;;;;;19.00;11.90;;;;;;;-141.97;84.35;47715.13;4974709;28;20172;-84
2023/05/22 04:43:31;;;;;;;25.00;15.07;;;;;;;-141.97;85.42;47670.91;4975236;28;20277;-84
2023/05/22 04:45:56;;;;;;;20.80;14.40;;;;;;;-141.97;85.07;47651.69;4974318;28;20219;-83
2023/05/22 04:48:22;;;;;;;17.10;12.57;;;;;;;-141.97;84.53;47690.16;4979247;28;20164;-82
2023/05/22 04:50:53;;;;;;;22.03;13.27;;;;;;;-141.97;84.25;47732.44;4988340;28;20171;-84
2023/05/22 04:53:18;;;;;;;20.30;13.13;;;;;;;-141.97;84.57;47842.00;4992312;28;20254;-85
2023/05/22 04:55:44;;;;;;;25.90;20.07;;;;;;;-141.97;84.75;47592.13;4983691;28;20175;-84
2023/05/22 04:58:10;;;;;;;30.40;15.73;;;;;;;-141.97;85.14;47503.69;4976110;28;20171;-84
2023/05/22 05:00:35;;;;;;;21.70;13.40;;;;;;;-141.97;85.15;47622.88;4976055;28;20591;-85
2023/05/22 05:03:01;;;;;;;17.30;11.63;;;;;;;-141.97;84.02;47859.28;4975670;28;20282;-84
2023/05/22 05:05:26;;;;;;;17.13;11.17;;;;;;;-141.97;81.14;47649.78;4974715;28;20547;-86
2023/05/22 05:07:52;;;;;;;16.00;10.93;;;;;;;-141.97;79.61;47699.75;4991247;28;20204;-85
2023/05/22 05:10:18;;;;;;;21.07;11.40;;;;;;;-141.97;79.92;47740.13;4976227;28;20175;-86
2023/05/22 05:12:44;;;;;;;18.67;11.33;;;;;;;-141.97;78.91;47601.72;4935238;28;20240;-86
2023/05/22 05:15:09;;;;;;;17.77;10.77;;;;;;;-141.97;77.44;47718.97;4957877;28;20230;-85
2023/05/22 05:17:35;;;;;;;15.07;10.77;;;;;;;-141.97;77.70;47676.69;4974420;28;20176;-86
2023/05/22 05:20:00;;;;;;;20.83;12.20;;;;;;;-141.97;78.02;47736.28;4974134;28;20190;-86
2023/05/22 05:22:25;;;;;;;23.50;14.73;;;;;;;-141.97;79.29;47403.75;4971133;28;20196;-86
2023/05/22 05:24:51;;;;;;;19.70;12.73;;;;;;;-141.97;80.04;47722.81;4957947;28;20667;-86
2023/05/22 05:27:16;;;;;;;17.77;12.17;;;;;;;-141.97;80.74;47663.22;4954392;29;20235;-86
2023/05/22 05:29:42;;;;;;;21.63;12.73;;;;;;;-141.97;80.51;47607.50;4955514;29;20277;-86
2023/05/22 05:32:08;;;;;;;21.90;13.30;;;;;;;-141.97;79.56;47722.81;4959017;28;20165;-85
2023/05/22 05:34:34;;;;;;;18.20;11.83;;;;;;;-141.97;78.95;47572.91;4976717;28;20172;-85
2023/05/22 05:37:01;;;;;;;18.50;11.50;;;;;;;-141.97;79.71;47597.88;4979297;28;20199;-87
2023/05/22 05:39:27;;;;;;;20.70;11.23;;;;;;;-141.97;79.49;47718.97;4975127;28;20168;-87
2023/05/22 05:41:52;;;;;;;17.10;11.20;;;;;;;-141.97;80.07;47501.78;4957597;28;20183;-87
2023/05/22 05:44:17;;;;;;;21.07;11.37;;;;;;;-141.97;80.15;47611.34;4974978;28;20216;-86
2023/05/22 05:46:43;;;;;;;17.70;11.93;;;;;;;-141.97;79.62;47594.03;4973634;28;20176;-86
2023/05/22 05:49:10;;;;;;;24.27;14.57;;;;;;;-141.97;79.21;47580.59;4974239;28;20232;-85
2023/05/22 05:51:38;;;;;;;22.97;13.20;;;;;;;-141.97;77.74;47922.72;4958276;28;20671;-88
2023/05/22 05:54:04;;;;;;;22.27;13.67;;;;;;;-141.97;76.25;47588.28;4975187;28;20219;-87
2023/05/22 05:56:30;;;;;;;22.47;11.50;;;;;;;-141.97;74.92;47672.84;4957888;28;20576;-87
2023/05/22 05:58:55;;;;;;;16.43;11.27;;;;;;;-141.97;76.40;47711.28;4973539;28;20597;-87
2023/05/22 06:01:23;;;;;;;16.87;10.90;;;;;;;-141.97;74.69;47740.13;4974614;28;20219;-87
2023/05/22 06:03:49;;;;;;;19.13;11.63;;;;;;;-141.97;75.04;47840.06;4957123;28;20192;-87
2023/05/22 06:06:16;;;;;;;18.20;11.33;;;;;;;-141.97;74.58;47565.22;4957043;28;20191;-87
2023/05/22 06:08:42;;;;;;;17.27;11.23;;;;;;;-141.97;74.20;47665.16;4971819;28;20585;-86
2023/05/22 06:11:07;;;;;;;16.30;11.17;;;;;;;-141.97;72.74;47605.56;4972845;28;20180;-87
2023/05/22 06:13:32;;;;;;;20.67;11.73;;;;;;;-141.97;71.34;47638.25;4967684;28;20161;-87
2023/05/22 06:15:58;;;;;;;21.17;11.63;;;;;;;-141.97;69.88;47494.09;4972028;28;20268;-88
2023/05/22 06:18:24;;;;;;;17.07;11.20;;;;;;;-141.97;70.23;47707.44;4969938;28;20184;-86
2023/05/22 06:20:50;;;;;;;16.20;11.30;;;;;;;-141.97;69.38;47849.69;4974627;28;20172;-86
2023/05/22 06:23:15;;;;;;;17.67;10.60;;;;;;;-141.97;68.59;47722.81;4973819;28;20200;-86
2023/05/22 06:25:41;;;;;;;18.03;10.93;;;;;;;-141.97;66.89;47822.78;4974690;28;20198;-86
2023/05/22 06:28:06;;;;;;;19.23;10.23;;;;;;;-141.97;65.45;47818.94;4957735;28;20163;-86
2023/05/22 06:30:32;;;;;;;16.43;10.57;;;;;;;-141.97;64.31;47665.16;4973970;28;20164;-87
2023/05/22 06:32:57;;;;;;;17.00;9.57;;;;;;;-141.97;62.77;47684.38;4974538;28;20156;-88
2023/05/22 06:35:23;;;;;;;19.33;10.27;;;;;;;-141.97;63.67;47624.78;4957451;28;20198;-87
2023/05/22 06:37:48;;;;;;;14.97;9.70;;;;;;;-141.97;62.12;47830.47;4956863;28;20726;-88
2023/05/22 06:40:14;;;;;;;14.93;9.47;;;;;;;-141.97;59.37;47790.09;4956911;28;20167;-86
2023/05/22 06:42:40;;;;;;;16.57;9.70;;;;;;;-141.97;60.38;47661.31;4958209;28;21382;-87
2023/05/22 06:45:06;;;;;;;19.40;9.60;;;;;;;-141.97;59.92;47830.47;4957491;28;20184;-86
2023/05/22 06:47:31;;;;;;;17.07;10.13;;;;;;;-141.97;59.92;47640.16;4953662;29;20625;-87
2023/05/22 06:49:56;;;;;;;14.30;8.60;;;;;;;-141.97;58.66;47657.47;4956971;28;20169;-86
2023/05/22 06:52:22;;;;;;;12.50;8.07;;;;;;;-141.97;57.40;47622.88;4950163;29;20165;-86
2023/05/22 06:54:48;;;;;;;20.83;9.20;;;;;;;-141.97;56.77;47620.94;4956356;28;20533;-86
2023/05/22 06:57:13;;;;;;;15.03;9.07;;;;;;;-141.97;58.48;47588.28;4987744;28;20273;-86
2023/05/22 06:59:39;;;;;;;16.57;8.60;;;;;;;-141.97;58.10;47515.22;4985695;28;20160;-86
2023/05/22 07:02:05;;;;;;;14.20;8.23;;;;;;;-141.97;57.21;47626.72;4960510;28;20192;-85
2023/05/22 07:04:30;;;;;;;13.33;8.00;;;;;;;-141.97;55.68;47492.16;4962448;28;20607;-86
2023/05/22 07:06:55;;;;;;;14.77;8.57;;;;;;;-141.97;57.20;47868.91;4961633;28;20187;-87
2023/05/22 07:09:21;;;;;;;15.67;8.73;;;;;;;-141.97;57.08;47576.75;4983943;28;20167;-86
2023/05/22 07:11:46;;;;;;;13.43;8.03;;;;;;;-141.97;55.44;47747.81;4998890;28;20176;-86
2023/05/22 07:14:12;;;;;;;12.73;7.60;;;;;;;-141.97;54.77;47642.09;4987276;28;20239;-86
2023/05/22 07:16:39;;;;;;;11.60;7.40;;;;;;;-141.97;53.56;47599.81;4962382;28;20219;-87
2023/05/22 07:19:05;;;;;;;10.20;7.80;;;;;;;-141.97;54.47;47565.22;4976894;28;20251;-87
2023/05/22 07:21:31;;;;;;;11.33;6.50;;;;;;;-141.97;51.70;47524.84;4977685;28;20164;-88
2023/05/22 07:23:56;;;;;;;13.80;7.50;;;;;;;-141.97;52.46;47634.41;4978242;28;20207;-87
2023/05/22 07:26:22;;;;;;;12.73;7.87;;;;;;;-141.97;52.79;47795.88;4960670;28;20280;-87
2023/05/22 07:28:48;;;;;;;12.37;7.67;;;;;;;-141.97;52.85;47649.78;4978644;28;20168;-87
2023/05/22 07:31:13;;;;;;;9.60;7.00;;;;;;;-141.97;52.59;47515.22;4961399;28;20242;-87
2023/05/22 07:33:38;;;;;;;11.77;7.40;;;;;;;-141.97;51.46;47471.03;4976332;28;20258;-86
2023/05/22 07:36:05;;;;;;;13.87;7.10;;;;;;;-141.97;49.87;47538.28;4980590;28;20302;-86
2023/05/22 07:38:30;;;;;;;9.73;6.87;;;;;;;-141.97;49.16;47434.50;4979909;28;20195;-87
2023/05/22 07:40:56;;;;;;;10.43;6.70;;;;;;;-141.97;49.43;47499.84;4961133;28;20211;-86
2023/05/22 07:43:21;;;;;;;10.13;6.57;;;;;;;-141.97;48.80;47559.44;4978454;28;20227;-87
2023/05/22 07:45:47;;;;;;;9.73;6.27;;;;;;;-141.97;47.88;47501.78;4977861;28;20622;-87
2023/05/22 07:48:12;;;;;;;12.37;6.13;;;;;;;-141.97;45.10;47557.53;4977659;28;20168;-86
2023/05/22 07:50:38;;;;;;;8.53;6.67;;;;;;;-141.97;45.28;47432.59;4976200;28;20188;-87
2023/05/22 07:53:04;;;;;;;11.73;6.60;;;;;;;-141.97;44.65;47499.84;4959884;28;20156;-86
2023/05/22 07:55:29;;;;;;;8.23;6.30;;;;;;;-141.97;43.93;47496.00;4976296;28;20219;-86
2023/05/22 07:57:55;;;;;;;14.20;6.75;;;;;;;-141.97;42.78;47747.81;4975190;28;20263;-87
2023/05/22 08:00:21;;;;;;;11.73;6.50;;;;;;;-141.97;45.03;47321.13;4975786;28;20160;-87
2023/05/22 08:02:46;;;;;;;11.50;6.80;;;;;;;-141.97;46.09;47795.88;4977811;28;20210;-87
2023/05/22 08:05:12;;;;;;;10.13;6.53;;;;;;;-141.97;45.56;47505.63;4978190;28;20301;-88
2023/05/22 08:07:37;;;;;;;10.13;6.22;;;;;;;-141.97;44.69;47499.84;4955624;29;20559;-88
2023/05/22 08:10:13;;;;;;;10.40;6.68;;;;;;;-141.97;44.38;47609.41;4970925;28;20170;-87
2023/05/22 08:12:38;;;;;;;10.00;6.40;;;;;;;-141.97;43.28;47599.81;4976385;28;20302;-88
2023/05/22 08:15:05;;;;;;;9.55;6.22;;;;;;;-141.97;42.82;47455.66;4966593;28;20718;-87
2023/05/22 08:17:30;;;;;;;9.80;6.68;;;;;;;-141.97;43.77;47449.88;4955064;29;20218;-87
2023/05/22 08:19:55;;;;;;;12.98;6.50;;;;;;;-141.97;44.17;47549.84;4957416;28;20204;-85
2023/05/22 08:22:21;;;;;;;10.35;6.47;;;;;;;-141.97;43.19;47532.53;4954215;28;20263;-86
2023/05/22 08:24:46;;;;;;;9.48;6.30;;;;;;;-141.97;42.38;47732.44;4972052;28;20169;-86
2023/05/22 08:27:12;;;;;;;18.17;6.38;;;;;;;-141.97;41.91;47807.41;4957319;28;20549;-86
2023/05/22 08:29:37;;;;;;;11.52;6.65;;;;;;;-141.97;43.82;47751.66;4957652;28;20225;-86
2023/05/22 08:32:03;;;;;;;10.38;6.20;;;;;;;-141.97;41.63;47546.00;4974962;28;20187;-86
2023/05/22 08:34:28;;;;;;;14.00;5.85;;;;;;;-141.97;40.49;47509.47;4975963;28;20163;-86
2023/05/22 08:36:54;;;;;;;13.88;6.32;;;;;;;-141.97;39.92;47734.34;4979112;28;20184;-86
2023/05/22 08:39:19;;;;;;;9.70;5.85;;;;;;;-141.97;39.34;47576.75;4963149;28;20172;-86
2023/05/22 08:41:46;;;;;;;9.27;5.82;;;;;;;-141.97;38.46;47524.84;4989408;28;20272;-86
2023/05/22 08:44:12;;;;;;;10.63;5.72;;;;;;;-141.97;37.93;47482.56;4976605;28;20294;-85
2023/05/22 08:46:42;;;;;;;7.30;5.63;;;;;;;-141.97;37.86;47472.94;4987857;28;20187;-85
2023/05/22 08:49:09;;;;;;;7.68;5.30;;;;;;;-141.97;37.92;47620.94;4956994;28;20165;-86
2023/05/22 08:51:38;;;;;;;8.40;5.90;;;;;;;-141.97;38.35;47488.31;4975028;28;20168;-86
2023/05/22 08:54:08;;;;;;;8.05;5.30;;;;;;;-141.97;37.13;47530.59;4975456;28;20622;-86
2023/05/22 08:56:34;;;;;;;11.02;5.97;;;;;;;-141.97;38.25;47572.91;4974195;28;20554;-86
2023/05/22 08:59:01;;;;;;;8.07;5.88;;;;;;;-141.97;38.43;47657.47;4957842;28;20177;-86
2023/05/22 09:01:31;;;;;;;9.30;5.15;;;;;;;-141.97;38.04;47745.88;4977399;28;20162;-87
2023/05/22 09:04:02;;;;;;;8.07;5.43;;;;;;;-141.97;38.41;47546.00;4964485;28;20687;-87
2023/05/22 09:06:31;;;;;;;9.98;5.63;;;;;;;-141.97;37.95;47555.59;4957329;28;20269;-86
2023/05/22 09:08:57;;;;;;;8.85;5.78;;;;;;;-141.97;38.04;47449.88;4971220;28;20602;-85
2023/05/22 09:11:23;;;;;;;10.10;5.10;;;;;;;-141.97;37.89;47734.34;4973567;28;20258;-87
2023/05/22 09:13:50;;;;;;;10.02;5.15;;;;;;;-141.97;38.99;47690.16;4974074;28;20206;-85
2023/05/22 09:16:17;;;;;;;11.60;5.53;;;;;;;-141.97;38.97;47588.28;4963630;28;21051;-87
2023/05/22 09:18:43;;;;;;;13.63;6.05;;;;;;;-141.97;38.67;47421.06;4954270;28;20285;-86
2023/05/22 09:21:11;;;;;;;15.13;6.25;;;;;;;-141.97;38.62;47524.84;4957515;28;20183;-86
2023/05/22 09:23:36;;;;;;;11.05;6.20;;;;;;;-141.97;38.72;47492.16;4975102;28;20228;-86
2023/05/22 09:26:02;;;;;;;9.70;5.80;;;;;;;-141.97;38.77;47544.06;4957975;28;20175;-86
2023/05/22 09:28:34;;;;;;;9.15;5.35;;;;;;;-141.97;39.04;47521.00;4974835;28;20183;-86
2023/05/22 09:31:00;;;;;;;8.25;5.60;;;;;;;-141.97;38.06;47572.91;4975005;28;20158;-86
2023/05/22 09:33:26;;;;;;;9.85;5.63;;;;;;;-141.97;39.13;47619.03;4956864;28;20198;-87
2023/05/22 09:35:52;;;;;;;15.27;5.57;;;;;;;-141.97;38.24;47326.88;4974507;28;20260;-85
2023/05/22 09:38:21;;;;;;;8.10;5.65;;;;;;;-141.97;37.58;47530.59;4974521;28;20175;-86
2023/05/22 09:40:52;;;;;;;8.48;5.35;;;;;;;-141.97;37.54;47807.41;4974883;28;20603;-86
2023/05/22 09:43:17;;;;;;;9.32;5.30;;;;;;;-141.97;37.22;47503.69;4974877;28;20235;-85
2023/05/22 09:45:43;;;;;;;8.68;5.63;;;;;;;-141.97;36.95;47534.44;4978350;28;20603;-87
2023/05/22 09:48:09;;;;;;;9.73;5.63;;;;;;;-141.97;37.14;47511.38;4974354;28;20257;-86
2023/05/22 09:50:38;;;;;;;7.18;5.20;;;;;;;-141.97;36.43;47467.19;4974434;28;20268;-85
2023/05/22 09:53:04;;;;;;;10.95;6.25;;;;;;;-141.97;36.53;47348.03;4974946;28;20167;-85
2023/05/22 09:55:33;;;;;;;10.63;4.85;;;;;;;-141.97;37.03;47547.91;4975096;28;20160;-84
2023/05/22 09:58:03;;;;;;;11.23;5.20;;;;;;;-141.97;37.27;47615.19;4957368;28;20194;-85
2023/05/22 10:00:30;;;;;;;9.75;5.10;;;;;;;-141.97;37.54;47524.84;4957894;28;20192;-84
2023/05/22 10:03:07;;;;;;;7.97;5.25;;;;;;;-141.97;36.99;47565.22;4975495;28;20202;-85
2023/05/22 10:05:36;;;;;;;7.35;5.07;;;;;;;-141.97;37.12;47336.50;4977484;28;20179;-84
2023/05/22 10:08:26;;;;;;;13.30;6.03;;;;;;;-141.97;36.88;47726.66;4991411;28;20164;-86
2023/05/22 10:10:52;;;;;;;9.02;5.03;;;;;;;-141.97;35.85;47799.72;4990294;28;20164;-87
2023/05/22 10:13:19;;;;;;;9.43;5.50;;;;;;;-141.97;35.76;47415.28;4972905;28;20207;-86
2023/05/22 10:15:47;;;;;;;7.85;5.07;;;;;;;-141.97;34.53;47544.06;4970485;28;20317;-85
2023/05/22 10:18:17;;;;;;;9.32;5.00;;;;;;;-141.97;35.34;47411.44;4976013;28;20667;-86
2023/05/22 10:20:45;;;;;;;9.57;5.35;;;;;;;-141.97;36.60;47447.97;4975125;28;20248;-88
2023/05/22 10:23:12;;;;;;;9.18;5.18;;;;;;;-141.97;36.90;47398.00;4975069;28;20709;-87
2023/05/22 10:25:38;;;;;;;7.72;4.78;;;;;;;-141.97;36.23;47572.91;4974433;28;20178;-86
2023/05/22 10:28:04;;;;;;;8.85;5.55;;;;;;;-141.97;37.38;47751.66;4973977;28;20180;-87
2023/05/22 10:30:39;;;;;;;5.30;4.70;;;;;;;-141.97;36.27;47534.44;4973573;28;20259;-85
2023/05/22 10:33:30;;;;;;;9.50;5.15;;;;;;;-141.97;36.24;47553.69;4975213;28;20200;-85
2023/05/22 10:36:02;;;;;;;7.60;5.10;;;;;;;-141.97;36.38;47547.91;4974887;28;20174;-85
2023/05/22 10:38:55;;;;;;;10.98;5.20;;;;;;;-141.97;36.57;47561.38;4974276;28;20607;-85
2023/05/22 10:41:25;;;;;;;7.38;5.07;;;;;;;-141.97;37.11;47553.69;4956780;28;20274;-85
2023/05/22 10:43:50;;;;;;;11.43;5.47;;;;;;;-141.97;37.07;47590.19;4956744;28;20245;-86
2023/05/22 10:46:17;;;;;;;11.80;5.03;;;;;;;-141.97;36.67;47392.22;4958633;28;20201;-86
2023/05/22 10:48:48;;;;;;;7.50;4.97;;;;;;;-141.97;36.41;47542.16;4977121;28;20549;-86
2023/05/22 10:51:18;;;;;;;8.65;4.97;;;;;;;-141.97;35.86;47461.41;4959999;28;20263;-86
2023/05/22 10:53:46;;;;;;;11.70;6.20;;;;;;;-141.97;35.94;47549.84;4959958;28;20170;-85
2023/05/22 10:56:13;;;;;;;6.55;4.53;;;;;;;-141.97;35.45;47559.44;4976452;28;20184;-86
2023/05/22 10:58:41;;;;;;;7.88;5.15;;;;;;;-141.97;35.13;47734.34;4977277;28;20203;-86
2023/05/22 11:01:19;;;;;;;7.32;4.70;;;;;;;-141.97;35.46;47517.16;4977550;28;20683;-87
2023/05/22 11:03:58;;;;;;;8.25;4.95;;;;;;;-141.97;35.46;47534.44;4981991;28;20186;-86
2023/05/22 11:07:11;;;;;;;7.32;4.65;;;;;;;-141.97;35.82;47530.59;4973022;28;20180;-86
2023/05/22 11:09:47;;;;;;;8.35;5.20;;;;;;;-141.97;35.79;47567.13;4917966;29;20198;-85
2023/05/22 11:12:29;;;;;;;12.70;4.90;;;;;;;-141.97;34.91;47767.03;4917164;29;20197;-85